Time;durP1;ratioP1;P1;durP2;ratioP2;P2;SDS_P1;SDS_P2;PMS_P1;PMS_P2;Temp;Humidity;BMP_temperature;BMP_pressure;BME280_temperature;BME280_humidity;BME280_pressure;Samples;Min_cycle;Max_cycle;Signal;HPM_P1;HPM_P2
2023/11/24 00:01:49;;;;;;;17.13;2.03;;;;;;;4.64;100.00;99899.72;7363976;19;20438;-40
2023/11/24 00:04:21;;;;;;;21.27;2.40;;;;;;;4.65;100.00;99896.38;7387571;19;20410;-39
2023/11/24 00:06:51;;;;;;;8.00;1.90;;;;;;;4.66;100.00;99900.72;7365308;19;20434;-38
2023/11/24 00:09:21;;;;;;;24.87;3.97;;;;;;;4.64;100.00;99889.50;7384646;19;20459;-40
2023/11/24 00:11:52;;;;;;;8.03;1.70;;;;;;;4.61;100.00;99895.34;7364701;19;20423;-38
2023/11/24 00:14:21;;;;;;;6.63;2.17;;;;;;;4.53;100.00;99907.72;7385049;19;20499;-39
2023/11/24 00:16:51;;;;;;;15.30;1.43;;;;;;;4.55;100.00;99895.91;7364661;19;20474;-38
2023/11/24 00:19:23;;;;;;;23.03;5.10;;;;;;;4.62;100.00;99909.91;7384156;19;20968;-40
2023/11/24 00:21:52;;;;;;;13.93;2.67;;;;;;;4.62;100.00;99912.44;7364597;19;20416;-39
2023/11/24 00:24:23;;;;;;;7.57;1.87;;;;;;;4.66;100.00;99914.34;7385094;19;20479;-38
2023/11/24 00:26:53;;;;;;;25.77;7.07;;;;;;;4.61;100.00;99913.22;7363731;19;20419;-39
2023/11/24 00:29:22;;;;;;;27.87;4.83;;;;;;;4.48;100.00;99915.94;7384050;19;20522;-40
2023/11/24 00:31:53;;;;;;;9.00;1.50;;;;;;;4.40;100.00;99912.97;7364002;19;20422;-39
2023/11/24 00:34:25;;;;;;;11.73;2.57;;;;;;;4.29;100.00;99922.63;7385258;19;20491;-38
2023/11/24 00:36:55;;;;;;;3.23;1.10;;;;;;;4.14;100.00;99918.44;7363494;19;20790;-40
2023/11/24 00:39:25;;;;;;;18.47;2.80;;;;;;;4.14;100.00;99923.56;7383798;19;20431;-40
2023/11/24 00:41:55;;;;;;;9.63;2.70;;;;;;;4.08;100.00;99933.44;7363982;19;20427;-40
2023/11/24 00:44:24;;;;;;;14.83;3.53;;;;;;;4.03;100.00;99937.41;7384478;19;20749;-39
2023/11/24 00:46:54;;;;;;;5.37;1.20;;;;;;;3.97;100.00;99929.41;7363003;19;20430;-40
2023/11/24 00:49:26;;;;;;;4.80;1.13;;;;;;;3.98;100.00;99932.03;7382946;19;20459;-40
2023/11/24 00:51:56;;;;;;;5.77;1.17;;;;;;;3.92;100.00;99935.16;7362910;19;20423;-39
2023/11/24 00:54:26;;;;;;;4.40;1.33;;;;;;;3.87;100.00;99928.91;7383435;19;20427;-38
2023/11/24 00:56:55;;;;;;;11.93;1.23;;;;;;;3.78;100.00;99921.63;7362843;19;20447;-39
2023/11/24 00:59:25;;;;;;;9.23;1.33;;;;;;;3.63;100.00;99916.53;7382317;19;20515;-47
2023/11/24 01:01:54;;;;;;;5.70;1.00;;;;;;;3.58;100.00;99915.38;7365774;19;20951;-39
2023/11/24 01:04:27;;;;;;;10.27;2.40;;;;;;;3.57;100.00;99918.72;7391469;19;20785;-39
2023/11/24 01:06:57;;;;;;;7.83;1.10;;;;;;;3.54;100.00;99912.59;7369612;19;20507;-40
2023/11/24 01:09:27;;;;;;;13.80;3.43;;;;;;;3.53;100.00;99905.72;7390526;19;20453;-39
2023/11/24 01:11:56;;;;;;;7.53;0.80;;;;;;;3.47;100.00;99902.03;7368111;19;20424;-40
2023/11/24 01:14:26;;;;;;;10.47;2.80;;;;;;;3.50;100.00;99906.44;7391650;19;20418;-39
2023/11/24 01:17:00;;;;;;;11.53;2.50;;;;;;;3.44;100.00;99916.28;7369372;19;20415;-42
2023/11/24 01:19:32;;;;;;;12.70;1.33;;;;;;;3.41;100.00;99917.00;7390183;19;20432;-40
2023/11/24 01:22:03;;;;;;;17.20;4.13;;;;;;;3.45;100.00;99924.03;7374562;19;20441;-40
2023/11/24 01:24:32;;;;;;;7.87;1.07;;;;;;;3.46;100.00;99930.00;7398253;19;20419;-40
2023/11/24 01:27:02;;;;;;;5.53;1.53;;;;;;;3.43;100.00;99965.53;7375433;19;20421;-39
2023/11/24 01:29:32;;;;;;;6.20;1.87;;;;;;;3.34;100.00;99982.03;7397318;19;20447;-44
2023/11/24 01:32:01;;;;;;;9.63;1.43;;;;;;;3.19;100.00;100002.41;7375357;19;20419;-43
2023/11/24 01:34:34;;;;;;;11.13;2.00;;;;;;;2.94;100.00;100041.75;7397041;19;20766;-42
2023/11/24 01:37:04;;;;;;;5.70;1.30;;;;;;;2.88;100.00;100060.88;7375083;19;20434;-42
2023/11/24 01:39:34;;;;;;;1.97;0.63;;;;;;;2.68;100.00;100109.78;7396908;19;20450;-41
2023/11/24 01:42:04;;;;;;;3.60;1.17;;;;;;;2.65;100.00;100193.69;7374703;19;20415;-41
2023/11/24 01:44:34;;;;;;;4.77;1.17;;;;;;;2.59;100.00;100273.91;7397381;19;20410;-42
2023/11/24 01:47:05;;;;;;;6.40;0.80;;;;;;;2.59;100.00;100291.72;7373384;19;21223;-41
2023/11/24 01:49:37;;;;;;;10.80;2.90;;;;;;;2.62;100.00;100341.22;7396853;19;20455;-41
2023/11/24 01:52:08;;;;;;;4.90;1.20;;;;;;;2.63;100.00;100354.84;7374528;19;20429;-40
2023/11/24 01:54:38;;;;;;;6.10;2.20;;;;;;;2.62;100.00;100393.84;7397660;19;20403;-41
2023/11/24 01:57:09;;;;;;;15.80;3.87;;;;;;;2.68;100.00;100404.44;7371818;19;20951;-41
2023/11/24 01:59:38;;;;;;;12.00;1.07;;;;;;;2.66;100.00;100436.59;7397056;19;20439;-42
2023/11/24 02:02:09;;;;;;;7.20;1.20;;;;;;;2.69;100.00;100434.25;7374818;19;20415;-43
2023/11/24 02:04:42;;;;;;;6.60;2.00;;;;;;;2.70;100.00;100426.72;7397232;19;20411;-43
2023/11/24 02:07:11;;;;;;;6.63;1.10;;;;;;;2.69;100.00;100439.34;7374188;19;20956;-40
2023/11/24 02:09:41;;;;;;;8.40;2.03;;;;;;;2.65;100.00;100425.50;7396053;19;20452;-40
2023/11/24 02:12:13;;;;;;;6.80;1.10;;;;;;;2.53;100.00;100415.38;7374040;19;20410;-42
2023/11/24 02:14:40;;;;;;;10.20;1.17;;;;;;;2.53;100.00;100400.09;7397151;19;20407;-40
2023/11/24 02:17:09;;;;;;;15.20;2.80;;;;;;;2.52;100.00;100418.66;7373855;19;20437;-41
2023/11/24 02:19:41;;;;;;;11.27;2.50;;;;;;;2.49;100.00;100428.66;7396232;19;20873;-41
2023/11/24 02:22:11;;;;;;;7.20;1.07;;;;;;;2.46;100.00;100413.16;7373464;19;20433;-39
2023/11/24 02:24:43;;;;;;;21.73;3.40;;;;;;;2.45;100.00;100415.63;7396778;19;20491;-43
2023/11/24 02:27:13;;;;;;;12.60;3.67;;;;;;;2.46;100.00;100419.94;7374280;19;20448;-41
2023/11/24 02:29:43;;;;;;;11.60;2.90;;;;;;;2.52;100.00;100398.28;7395115;19;21187;-41
2023/11/24 02:32:13;;;;;;;3.10;0.73;;;;;;;2.53;100.00;100415.38;7372854;19;20446;-39
2023/11/24 02:34:43;;;;;;;8.27;2.77;;;;;;;2.52;100.00;100415.25;7396462;19;20416;-41
2023/11/24 02:37:13;;;;;;;3.77;0.60;;;;;;;2.50;100.00;100415.16;7375256;19;20816;-40
2023/11/24 02:39:45;;;;;;;7.10;2.37;;;;;;;2.55;100.00;100416.34;7395448;19;20436;-41
2023/11/24 02:42:14;;;;;;;6.77;1.80;;;;;;;2.57;100.00;100416.47;7373645;19;20500;-40
2023/11/24 02:44:44;;;;;;;6.07;1.37;;;;;;;2.60;100.00;100431.94;7396659;19;20479;-39
2023/11/24 02:47:14;;;;;;;2.93;0.83;;;;;;;2.66;100.00;100408.56;7371249;19;20790;-39
2023/11/24 02:49:43;;;;;;;2.80;0.67;;;;;;;2.68;100.00;100405.31;7394694;19;20444;-41
2023/11/24 02:52:14;;;;;;;7.97;1.00;;;;;;;2.68;100.00;100390.03;7367513;19;20507;-39
2023/11/24 02:54:46;;;;;;;8.10;2.47;;;;;;;2.67;100.00;100378.06;7395980;19;21108;-39
2023/11/24 02:57:16;;;;;;;10.80;2.70;;;;;;;2.69;100.00;100388.38;7372595;19;20431;-40
2023/11/24 02:59:45;;;;;;;9.90;1.70;;;;;;;2.67;100.00;100362.78;7394947;19;20444;-39
2023/11/24 03:02:16;;;;;;;3.27;1.10;;;;;;;2.64;100.00;100361.69;7372712;19;20498;-39
2023/11/24 03:04:46;;;;;;;7.50;1.10;;;;;;;2.63;100.00;100354.84;7395883;19;20785;-40
2023/11/24 03:07:16;;;;;;;5.33;1.40;;;;;;;2.67;100.00;100347.50;7372451;19;20441;-39
2023/11/24 03:09:48;;;;;;;4.63;1.50;;;;;;;2.69;100.00;100340.88;7395406;19;20426;-41
2023/11/24 03:12:19;;;;;;;7.47;1.13;;;;;;;2.66;100.00;100333.00;7372927;19;20490;-41
2023/11/24 03:14:49;;;;;;;10.77;2.30;;;;;;;2.73;100.00;100325.78;7395869;19;20409;-39
2023/11/24 03:17:18;;;;;;;6.73;1.27;;;;;;;2.68;100.00;100322.91;7372328;19;20828;-41
2023/11/24 03:19:48;;;;;;;10.30;1.70;;;;;;;2.64;100.00;100304.00;7394868;19;20443;-44
2023/11/24 03:22:17;;;;;;;4.20;1.50;;;;;;;2.64;100.00;100290.38;7373389;19;20443;-39
2023/11/24 03:24:50;;;;;;;12.00;1.70;;;;;;;2.66;100.00;100273.53;7397100;19;20386;-39
2023/11/24 03:27:19;;;;;;;13.67;2.70;;;;;;;2.63;100.00;100283.53;7372536;19;20431;-39
2023/11/24 03:29:50;;;;;;;7.07;2.03;;;;;;;2.36;100.00;100258.00;7394622;19;20867;-39
2023/11/24 03:32:19;;;;;;;10.30;2.33;;;;;;;2.27;100.00;100251.47;7371730;19;20426;-38
2023/11/24 03:34:49;;;;;;;11.60;2.33;;;;;;;2.19;100.00;100257.72;7396174;19;20739;-38
2023/11/24 03:37:19;;;;;;;11.93;1.67;;;;;;;2.15;100.00;100279.53;7372604;19;20427;-38
2023/11/24 03:39:51;;;;;;;19.67;2.30;;;;;;;2.12;100.00;100296.28;7394022;19;20446;-38
2023/11/24 03:42:21;;;;;;;15.23;2.90;;;;;;;2.11;100.00;100309.78;7371868;19;20802;-38
2023/11/24 03:44:51;;;;;;;4.97;1.10;;;;;;;2.19;100.00;100321.38;7392496;19;20428;-39
2023/11/24 03:47:21;;;;;;;6.13;1.40;;;;;;;2.14;100.00;100332.88;7369978;19;20770;-41
2023/11/24 03:49:50;;;;;;;7.43;1.90;;;;;;;2.18;100.00;100336.53;7392040;19;20472;-38
2023/11/24 03:52:20;;;;;;;20.73;2.00;;;;;;;2.21;100.00;100344.41;7371630;19;20427;-39
2023/11/24 03:54:52;;;;;;;4.40;1.20;;;;;;;2.23;100.00;100348.81;7394337;19;20491;-38
2023/11/24 03:57:22;;;;;;;3.40;1.13;;;;;;;2.20;100.00;100361.31;7368800;19;21081;-38
2023/11/24 03:59:52;;;;;;;10.60;2.07;;;;;;;2.23;100.00;100363.19;7392166;19;20514;-38
2023/11/24 04:02:21;;;;;;;16.30;2.40;;;;;;;2.21;100.00;100359.66;7371133;19;20428;-40
2023/11/24 04:04:51;;;;;;;30.80;4.70;;;;;;;2.22;100.00;100369.97;7392746;19;20475;-38
2023/11/24 04:07:21;;;;;;;10.90;1.63;;;;;;;2.21;100.00;100370.72;7370950;19;20415;-41
2023/11/24 04:09:53;;;;;;;12.13;1.40;;;;;;;2.20;100.00;100368.94;7393095;19;20511;-38
2023/11/24 04:12:22;;;;;;;9.40;1.37;;;;;;;2.22;100.00;100362.31;7370970;19;20438;-38
2023/11/24 04:14:52;;;;;;;9.83;1.73;;;;;;;2.22;100.00;100367.41;7392460;19;20403;-41
2023/11/24 04:17:22;;;;;;;9.97;2.33;;;;;;;2.23;100.00;100360.66;7370949;19;20435;-39
2023/11/24 04:19:51;;;;;;;15.60;1.80;;;;;;;2.23;100.00;100353.00;7392218;19;20792;-38
2023/11/24 04:22:21;;;;;;;11.10;2.77;;;;;;;2.24;100.00;100330.22;7370210;19;20495;-40
2023/11/24 04:24:53;;;;;;;10.70;1.97;;;;;;;2.26;100.00;100328.63;7396094;19;20403;-38
2023/11/24 04:27:23;;;;;;;6.60;1.67;;;;;;;2.27;100.00;100315.13;7370348;19;20439;-39
2023/11/24 04:29:52;;;;;;;10.03;1.40;;;;;;;2.30;100.00;100314.47;7391715;19;20450;-40
2023/11/24 04:32:22;;;;;;;8.73;1.50;;;;;;;2.32;100.00;100318.00;7370175;19;21117;-40
2023/11/24 04:34:52;;;;;;;17.37;2.10;;;;;;;2.34;100.00;100282.44;7391261;19;20378;-38
2023/11/24 04:37:21;;;;;;;8.63;1.97;;;;;;;2.24;100.00;100266.56;7369790;19;20463;-43
2023/11/24 04:39:55;;;;;;;4.97;0.90;;;;;;;2.21;100.00;100238.34;7390326;19;20455;-38
2023/11/24 04:42:26;;;;;;;11.50;1.80;;;;;;;2.19;100.00;100209.34;7371083;19;20494;-38
2023/11/24 04:44:56;;;;;;;13.80;2.80;;;;;;;2.24;100.00;100157.09;7391381;19;20927;-39
2023/11/24 04:47:26;;;;;;;15.80;5.17;;;;;;;2.22;100.00;100117.94;7369062;19;20427;-38
2023/11/24 04:49:55;;;;;;;20.70;4.87;;;;;;;2.21;100.00;100074.56;7391253;19;20460;-38
2023/11/24 04:52:25;;;;;;;10.63;2.00;;;;;;;2.24;100.00;100054.38;7369348;19;20430;-38
2023/11/24 04:54:57;;;;;;;20.83;2.50;;;;;;;2.25;100.00;100036.66;7391480;19;20399;-39
2023/11/24 04:57:27;;;;;;;7.43;2.07;;;;;;;2.26;100.00;100002.78;7376925;19;20423;-38
2023/11/24 04:59:56;;;;;;;9.40;1.90;;;;;;;2.28;100.00;99988.50;7397782;19;20435;-38
2023/11/24 05:02:27;;;;;;;10.80;2.23;;;;;;;2.28;100.00;99960.50;7378016;19;20789;-39
2023/11/24 05:04:57;;;;;;;21.63;3.27;;;;;;;2.31;100.00;99936.88;7397539;19;20918;-40
2023/11/24 05:07:26;;;;;;;7.17;2.30;;;;;;;2.28;100.00;99923.94;7376863;19;20419;-38
2023/11/24 05:09:58;;;;;;;14.60;1.93;;;;;;;2.27;100.00;99906.91;7396853;19;20434;-39
2023/11/24 05:12:28;;;;;;;16.80;2.30;;;;;;;2.34;100.00;99901.41;7376429;19;20423;-40
2023/11/24 05:14:58;;;;;;;13.43;2.43;;;;;;;2.33;100.00;99899.66;7397698;19;20826;-38
2023/11/24 05:17:27;;;;;;;12.63;1.77;;;;;;;2.35;100.00;99881.94;7376738;19;20423;-38
2023/11/24 05:19:57;;;;;;;22.83;6.03;;;;;;;2.38;100.00;99874.47;7396805;19;20418;-40
2023/11/24 05:22:26;;;;;;;10.00;2.57;;;;;;;2.39;100.00;99858.41;7375841;19;20422;-38
2023/11/24 05:24:59;;;;;;;13.37;3.87;;;;;;;2.43;100.00;99840.00;7396916;19;20971;-38
2023/11/24 05:27:28;;;;;;;26.00;4.57;;;;;;;2.45;100.00;99840.94;7375756;19;20435;-39
2023/11/24 05:29:58;;;;;;;18.40;2.90;;;;;;;2.49;100.00;99827.63;7396450;19;20475;-40
2023/11/24 05:32:27;;;;;;;15.10;3.70;;;;;;;2.52;100.00;99821.84;7375933;19;20419;-40
2023/11/24 05:34:57;;;;;;;8.83;1.70;;;;;;;2.56;100.00;99819.56;7397039;19;20399;-39
2023/11/24 05:37:27;;;;;;;13.10;2.50;;;;;;;2.55;100.00;99811.81;7375115;19;20498;-38
2023/11/24 05:40:01;;;;;;;5.60;1.47;;;;;;;2.58;100.00;99801.81;7395942;19;21004;-39
2023/11/24 05:42:30;;;;;;;13.53;1.87;;;;;;;2.64;100.00;99797.09;7374676;19;20473;-39
2023/11/24 05:45:01;;;;;;;13.30;1.87;;;;;;;2.64;100.00;99791.09;7397080;19;20487;-38
2023/11/24 05:47:31;;;;;;;13.07;2.83;;;;;;;2.68;100.00;99767.56;7374234;19;20498;-40
2023/11/24 05:50:01;;;;;;;16.27;4.20;;;;;;;2.69;100.00;99764.22;7396185;19;20458;-39
2023/11/24 05:52:31;;;;;;;8.93;2.07;;;;;;;2.70;100.00;99755.78;7376427;19;20438;-40
2023/11/24 05:55:03;;;;;;;14.10;2.07;;;;;;;2.70;100.00;99740.50;7396417;19;20418;-39
2023/11/24 05:57:33;;;;;;;11.63;1.47;;;;;;;2.70;100.00;99740.50;7375147;19;20446;-38
2023/11/24 06:00:03;;;;;;;12.63;2.90;;;;;;;2.76;100.00;99732.34;7395701;19;20975;-39
2023/11/24 06:02:37;;;;;;;8.17;1.80;;;;;;;2.76;100.00;99725.56;7374211;19;20499;-38
2023/11/24 06:05:08;;;;;;;17.63;3.87;;;;;;;2.76;100.00;99719.63;7396323;19;20394;-38
2023/11/24 06:07:39;;;;;;;13.97;2.27;;;;;;;2.79;100.00;99719.78;7375059;19;20434;-40
2023/11/24 06:10:12;;;;;;;16.43;2.20;;;;;;;2.86;100.00;99710.81;7395678;19;20446;-38
2023/11/24 06:12:42;;;;;;;18.27;1.80;;;;;;;2.83;100.00;99697.09;7375274;19;20419;-42
2023/11/24 06:15:13;;;;;;;12.13;3.30;;;;;;;2.82;100.00;99710.63;7399354;19;20404;-39
2023/11/24 06:17:43;;;;;;;11.13;2.10;;;;;;;2.80;100.00;99696.94;7375650;19;20435;-38
2023/11/24 06:20:13;;;;;;;12.67;2.33;;;;;;;2.77;100.00;99693.34;7396090;19;20431;-39
2023/11/24 06:22:43;;;;;;;10.50;2.20;;;;;;;2.77;100.00;99686.56;7374091;19;20430;-40
2023/11/24 06:25:15;;;;;;;15.63;3.20;;;;;;;2.78;100.00;99683.22;7396357;19;20411;-38
2023/11/24 06:27:45;;;;;;;13.03;2.13;;;;;;;2.75;100.00;99695.78;7374421;19;20431;-39
2023/11/24 06:30:15;;;;;;;10.13;1.83;;;;;;;2.65;100.00;99690.97;7395497;19;20447;-38
2023/11/24 06:32:45;;;;;;;21.17;3.33;;;;;;;2.68;100.00;99702.19;7373919;19;20420;-38
2023/11/24 06:35:15;;;;;;;25.23;5.37;;;;;;;2.66;100.00;99701.25;7395966;19;20415;-39
2023/11/24 06:37:45;;;;;;;16.90;4.93;;;;;;;2.66;100.00;99708.03;7374439;19;20452;-41
2023/11/24 06:40:17;;;;;;;15.63;2.97;;;;;;;2.68;100.00;99708.97;7395434;19;20462;-39
2023/11/24 06:42:47;;;;;;;15.73;1.97;;;;;;;2.61;100.00;99696.69;7373739;19;20438;-39
2023/11/24 06:45:16;;;;;;;11.50;1.70;;;;;;;2.58;100.00;99704.16;7398233;19;20399;-38
2023/11/24 06:47:49;;;;;;;8.30;1.53;;;;;;;2.50;100.00;99701.16;7372598;19;20824;-38
2023/11/24 06:50:19;;;;;;;16.80;2.17;;;;;;;2.55;100.00;99704.84;7395538;19;20427;-40
2023/11/24 06:52:48;;;;;;;11.27;1.23;;;;;;;2.53;100.00;99702.25;7373545;19;20825;-38
2023/11/24 06:55:21;;;;;;;11.97;2.97;;;;;;;2.49;100.00;99689.22;7397658;19;20482;-38
2023/11/24 06:57:51;;;;;;;12.07;1.60;;;;;;;2.51;100.00;99687.66;7374555;19;20506;-38
2023/11/24 07:00:21;;;;;;;10.20;2.20;;;;;;;2.49;100.00;99690.09;7394775;19;20447;-37
2023/11/24 07:02:50;;;;;;;8.77;2.10;;;;;;;2.48;100.00;99683.25;7372983;19;20480;-38
2023/11/24 07:05:20;;;;;;;23.27;5.30;;;;;;;2.43;100.00;99687.22;7395834;19;21112;-37
2023/11/24 07:07:50;;;;;;;10.30;2.40;;;;;;;2.36;100.00;99680.88;7373634;19;20426;-38
2023/11/24 07:10:22;;;;;;;9.80;2.27;;;;;;;2.26;100.00;99689.66;7393833;19;20827;-38
2023/11/24 07:12:52;;;;;;;7.13;1.47;;;;;;;2.12;100.00;99682.88;7373500;19;20442;-38
2023/11/24 07:15:22;;;;;;;12.20;1.50;;;;;;;1.99;100.00;99705.06;7395120;19;20440;-38
2023/11/24 07:17:51;;;;;;;9.20;1.73;;;;;;;1.94;100.00;99709.00;7369721;19;21278;-38
2023/11/24 07:20:21;;;;;;;7.13;1.80;;;;;;;1.84;100.00;99711.81;7390259;19;20795;-37
2023/11/24 07:22:51;;;;;;;14.43;3.30;;;;;;;1.63;100.00;99722.41;7372781;19;20414;-38
2023/11/24 07:25:23;;;;;;;7.33;1.50;;;;;;;1.61;100.00;99714.72;7397014;19;20420;-39
2023/11/24 07:27:53;;;;;;;2.47;0.93;;;;;;;1.43;100.00;99711.91;7371935;19;20438;-37
2023/11/24 07:30:25;;;;;;;6.50;1.13;;;;;;;1.45;100.00;99700.16;7394716;19;20447;-38
2023/11/24 07:32:54;;;;;;;3.47;1.00;;;;;;;1.40;100.00;99703.19;7372321;19;20425;-39
2023/11/24 07:35:24;;;;;;;6.57;1.50;;;;;;;1.31;100.00;99688.25;7387610;19;20395;-38
2023/11/24 07:37:54;;;;;;;7.33;1.13;;;;;;;1.24;100.00;99692.09;7365114;19;20410;-37
2023/11/24 07:40:27;;;;;;;5.47;1.43;;;;;;;1.30;100.00;99691.59;7387157;19;20447;-38
2023/11/24 07:42:56;;;;;;;14.60;3.07;;;;;;;1.43;100.00;99688.16;7363868;19;20983;-38
2023/11/24 07:45:26;;;;;;;9.10;1.70;;;;;;;1.39;100.00;99687.06;7387309;19;21046;-38
2023/11/24 07:47:55;;;;;;;19.00;5.57;;;;;;;1.39;100.00;99692.16;7363399;19;20502;-40
2023/11/24 07:50:25;;;;;;;58.20;16.80;;;;;;;1.49;100.00;99691.06;7385826;19;20769;-37
2023/11/24 07:52:55;;;;;;;19.27;5.97;;;;;;;1.50;100.00;99684.31;7364321;19;20435;-39
2023/11/24 07:55:30;;;;;;;17.37;3.13;;;;;;;1.49;100.00;99675.81;7386210;19;20396;-38
2023/11/24 07:58:00;;;;;;;13.33;1.77;;;;;;;1.56;100.00;99677.94;7363974;19;20436;-39
2023/11/24 08:00:31;;;;;;;6.20;1.73;;;;;;;1.65;100.00;99679.28;7384751;19;20464;-39
2023/11/24 08:03:01;;;;;;;29.80;8.10;;;;;;;1.71;100.00;99656.75;7363048;19;20423;-38
2023/11/24 08:05:31;;;;;;;13.47;3.50;;;;;;;1.73;100.00;99648.44;7385492;19;20754;-38
2023/11/24 08:08:00;;;;;;;5.93;1.70;;;;;;;1.77;100.00;99639.31;7363015;19;20418;-38
2023/11/24 08:10:32;;;;;;;9.33;1.77;;;;;;;1.86;100.00;99633.91;7383566;19;20918;-39
2023/11/24 08:13:02;;;;;;;5.00;1.50;;;;;;;1.88;100.00;99617.94;7363386;19;20399;-38
2023/11/24 08:15:32;;;;;;;11.13;1.60;;;;;;;1.94;100.00;99607.22;7384001;19;20427;-38
2023/11/24 08:18:02;;;;;;;14.30;1.60;;;;;;;1.97;100.00;99602.34;7363279;19;20419;-37
2023/11/24 08:20:31;;;;;;;5.20;0.90;;;;;;;2.07;100.00;99608.81;7384331;19;20418;-38
2023/11/24 08:23:01;;;;;;;12.87;3.20;;;;;;;2.18;100.00;99611.97;7361439;19;20498;-38
2023/11/24 08:25:34;;;;;;;7.57;2.30;;;;;;;2.24;100.00;99611.44;7384171;19;20399;-39
2023/11/24 08:28:04;;;;;;;7.60;1.53;;;;;;;2.38;100.00;99607.13;7361988;19;20497;-38
2023/11/24 08:30:34;;;;;;;7.30;1.30;;;;;;;2.45;100.00;99619.41;7382832;19;20432;-38
2023/11/24 08:33:04;;;;;;;6.17;1.10;;;;;;;2.51;100.00;99611.25;7363098;19;20430;-38
2023/11/24 08:35:34;;;;;;;9.40;1.20;;;;;;;2.55;100.00;99614.06;7385433;19;20407;-38
2023/11/24 08:38:04;;;;;;;20.30;2.97;;;;;;;2.65;100.00;99619.66;7364569;19;20430;-39
2023/11/24 08:40:39;;;;;;;35.30;7.03;;;;;;;2.73;100.00;99620.97;7384497;19;20935;-38
2023/11/24 08:43:08;;;;;;;8.83;1.60;;;;;;;2.62;100.00;99611.84;7362111;19;20401;-38
2023/11/24 08:45:38;;;;;;;8.67;2.00;;;;;;;2.65;100.00;99617.09;7385583;19;20937;-38
2023/11/24 08:48:09;;;;;;;16.60;3.50;;;;;;;2.72;100.00;99614.09;7360790;19;20498;-37
2023/11/24 08:50:38;;;;;;;14.53;3.40;;;;;;;2.86;100.00;99603.81;7385599;19;20473;-38
2023/11/24 08:53:08;;;;;;;6.93;1.77;;;;;;;3.01;100.00;99598.63;7362828;19;20437;-38
2023/11/24 08:55:40;;;;;;;9.63;3.00;;;;;;;3.00;100.00;99602.88;7385628;19;20424;-38
2023/11/24 08:58:10;;;;;;;6.13;1.57;;;;;;;2.97;100.00;99623.97;7362692;19;20498;-38
2023/11/24 09:00:39;;;;;;;8.00;1.77;;;;;;;2.98;100.00;99614.66;7380332;19;20411;-38
2023/11/24 09:03:09;;;;;;;10.17;1.33;;;;;;;2.84;100.00;99621.56;7360960;19;20419;-38
2023/11/24 09:05:38;;;;;;;5.17;1.60;;;;;;;2.61;100.00;99607.56;7383583;19;20479;-38
2023/11/24 09:08:08;;;;;;;5.27;1.30;;;;;;;2.24;100.00;99614.88;7359649;19;20415;-40
2023/11/24 09:10:42;;;;;;;5.30;1.57;;;;;;;2.15;100.00;99591.44;7382661;19;20942;-39
2023/11/24 09:13:13;;;;;;;15.00;5.20;;;;;;;2.07;100.00;99585.03;7360679;19;20978;-39
2023/11/24 09:15:44;;;;;;;13.07;3.40;;;;;;;2.00;100.00;99583.81;7382841;19;21013;-39
2023/11/24 09:18:13;;;;;;;10.20;2.83;;;;;;;1.97;100.00;99583.63;7362385;19;20538;-40
2023/11/24 09:20:45;;;;;;;31.07;9.20;;;;;;;2.09;100.00;99579.25;7382986;19;20411;-38
2023/11/24 09:23:15;;;;;;;5.77;1.80;;;;;;;2.18;100.00;99583.97;7360655;19;20419;-38
2023/11/24 09:25:48;;;;;;;18.37;3.00;;;;;;;2.29;100.00;99577.84;7383303;19;20495;-39
2023/11/24 09:28:20;;;;;;;14.90;3.00;;;;;;;2.28;100.00;99575.19;7360866;19;20426;-39
2023/11/24 09:30:50;;;;;;;10.90;2.73;;;;;;;2.33;100.00;99578.00;7384107;19;20426;-38
2023/11/24 09:33:19;;;;;;;8.80;1.60;;;;;;;2.44;100.00;99574.38;7360072;19;20398;-38
2023/11/24 09:35:49;;;;;;;11.87;2.53;;;;;;;2.53;100.00;99574.91;7382423;19;22024;-39
2023/11/24 09:38:19;;;;;;;11.17;1.83;;;;;;;2.50;100.00;99577.25;7360631;19;20512;-39
2023/11/24 09:40:54;;;;;;;15.50;4.57;;;;;;;2.67;100.00;99562.03;7382796;19;20437;-38
2023/11/24 09:43:24;;;;;;;6.30;2.00;;;;;;;2.78;100.00;99560.94;7368147;19;21169;-39
2023/11/24 09:45:53;;;;;;;37.17;10.53;;;;;;;3.03;100.00;99566.47;7390604;19;20413;-39
2023/11/24 09:48:23;;;;;;;23.87;2.30;;;;;;;2.97;100.00;99572.09;7367038;19;20447;-38
2023/11/24 09:50:53;;;;;;;10.10;2.20;;;;;;;2.92;100.00;99573.56;7390551;19;20759;-38
2023/11/24 09:53:23;;;;;;;8.90;1.83;;;;;;;2.89;100.00;99563.19;7368413;19;20975;-38
2023/11/24 09:55:56;;;;;;;11.97;1.50;;;;;;;2.80;100.00;99558.47;7389498;19;20959;-39
2023/11/24 09:58:25;;;;;;;7.73;1.27;;;;;;;2.77;100.00;99563.41;7368846;19;20470;-40
2023/11/24 10:00:58;;;;;;;7.70;1.57;;;;;;;2.58;100.00;99554.78;7390225;19;20407;-39
2023/11/24 10:03:28;;;;;;;8.00;1.13;;;;;;;2.49;100.00;99544.97;7368682;19;20431;-39
2023/11/24 10:05:57;;;;;;;6.37;1.43;;;;;;;2.48;100.00;99533.03;7390779;19;20471;-38
2023/11/24 10:08:27;;;;;;;8.90;1.50;;;;;;;2.50;100.00;99523.78;7367910;19;20546;-40
2023/11/24 10:11:12;;;;;;;8.20;1.90;;;;;;;2.59;100.00;99522.53;7388719;19;20428;-40
2023/11/24 10:13:43;;;;;;;34.20;11.40;;;;;;;2.88;100.00;99528.31;7369397;19;20486;-38
2023/11/24 10:16:15;;;;;;;3.97;1.47;;;;;;;2.90;100.00;99519.06;7367197;19;20919;-40
2023/11/24 10:18:45;;;;;;;7.90;1.37;;;;;;;2.90;100.00;99529.25;7387309;19;20830;-39
2023/11/24 10:21:15;;;;;;;13.10;3.07;;;;;;;3.01;100.00;99523.06;7367635;19;20418;-38
2023/11/24 10:24:00;;;;;;;80.03;22.33;;;;;;;3.01;100.00;99519.63;7388910;19;20400;-38
2023/11/24 10:26:34;;;;;;;12.87;2.70;;;;;;;2.98;100.00;99520.38;7367414;19;20396;-41
2023/11/24 10:29:03;;;;;;;10.10;2.93;;;;;;;2.88;100.00;99516.47;7387510;19;20522;-39
2023/11/24 10:31:33;;;;;;;20.87;3.30;;;;;;;2.69;100.00;99530.78;7366677;19;20476;-38
2023/11/24 10:34:03;;;;;;;14.43;1.50;;;;;;;2.53;100.00;99531.63;7387429;19;20437;-38
2023/11/24 10:36:33;;;;;;;45.63;13.40;;;;;;;2.62;100.00;99527.81;7365935;19;21218;-38
2023/11/24 10:39:06;;;;;;;7.37;1.83;;;;;;;2.56;100.00;99524.13;7387161;19;20419;-39
2023/11/24 10:41:43;;;;;;;9.47;1.77;;;;;;;2.63;100.00;99517.69;7366603;19;20422;-38
2023/11/24 10:44:13;;;;;;;23.30;4.97;;;;;;;2.62;100.00;99517.63;7387223;19;20876;-38
2023/11/24 10:46:46;;;;;;;4.87;1.90;;;;;;;2.77;100.00;99509.91;7365314;19;20456;-39
2023/11/24 10:49:20;;;;;;;20.80;4.87;;;;;;;2.87;100.00;99503.63;7385977;19;21030;-38
2023/11/24 10:51:55;;;;;;;5.90;1.47;;;;;;;2.94;100.00;99503.16;7366413;19;20426;-38
2023/11/24 10:54:29;;;;;;;8.77;1.80;;;;;;;3.02;100.00;99473.84;7384895;19;20411;-40
2023/11/24 10:57:02;;;;;;;29.97;8.43;;;;;;;3.17;100.00;99467.81;7366311;19;20419;-39
2023/11/24 10:59:34;;;;;;;6.93;1.30;;;;;;;3.10;100.00;99446.22;7387233;19;20438;-39
2023/11/24 11:02:06;;;;;;;8.83;1.27;;;;;;;3.04;100.00;99421.28;7366244;19;20435;-38
2023/11/24 11:04:36;;;;;;;13.80;2.90;;;;;;;3.00;100.00;99409.19;7387487;19;20440;-38
2023/11/24 11:07:09;;;;;;;24.70;5.40;;;;;;;3.02;100.00;99402.47;7366492;19;20787;-40
2023/11/24 11:09:47;;;;;;;8.60;1.53;;;;;;;3.00;100.00;99386.25;7386662;19;20412;-40
2023/11/24 11:12:51;;;;;;;3.00;0.63;;;;;;;3.02;100.00;99381.25;7366577;19;20842;-39
2023/11/24 11:15:25;;;;;;;8.23;1.20;;;;;;;2.91;100.00;99390.88;7388099;19;20419;-38
2023/11/24 11:18:11;;;;;;;8.63;1.30;;;;;;;2.88;100.00;99396.72;7365077;19;20427;-38
2023/11/24 11:20:41;;;;;;;8.10;1.10;;;;;;;2.84;100.00;99398.19;7386339;19;20411;-38
2023/11/24 11:23:15;;;;;;;4.50;0.77;;;;;;;2.87;100.00;99391.53;7364819;19;20419;-38
2023/11/24 11:25:46;;;;;;;5.00;1.30;;;;;;;2.75;100.00;99389.22;7386655;19;20403;-37
2023/11/24 11:28:42;;;;;;;10.97;1.30;;;;;;;2.69;100.00;99383.03;7365161;19;20419;-38
2023/11/24 11:31:27;;;;;;;3.73;0.77;;;;;;;2.58;100.00;99362.88;7374563;19;20419;-38
2023/11/24 11:34:12;;;;;;;6.10;0.97;;;;;;;2.62;100.00;99349.53;7388460;19;20403;-37
2023/11/24 11:36:52;;;;;;;6.10;0.70;;;;;;;2.66;100.00;99341.25;7366719;19;20471;-38
2023/11/24 11:39:26;;;;;;;6.63;0.93;;;;;;;2.92;100.00;99326.41;7386408;19;20578;-38
2023/11/24 11:41:58;;;;;;;5.87;0.77;;;;;;;3.00;100.00;99342.03;7364885;19;20568;-38
2023/11/24 11:44:39;;;;;;;2.27;0.80;;;;;;;2.90;100.00;99350.91;7386318;19;20403;-37